createdAt,value
2023-03-29T00:00:41.139Z,8.45
2023-03-29T00:03:11.966Z,7.43
2023-03-29T00:05:42.940Z,7.70
2023-03-29T00:08:19.461Z,8.15
2023-03-29T00:10:52.851Z,7.50
2023-03-29T00:13:25.156Z,7.95
2023-03-29T00:15:56.154Z,8.27
2023-03-29T00:18:26.848Z,8.55
2023-03-29T00:21:01.876Z,9.07
2023-03-29T00:23:32.669Z,8.57
2023-03-29T00:26:04.692Z,7.10
2023-03-29T00:28:38.235Z,8.18
2023-03-29T00:31:10.921Z,8.77
2023-03-29T00:33:42.207Z,7.97
2023-03-29T00:36:14.045Z,7.38
2023-03-29T00:38:44.720Z,8.75
2023-03-29T00:41:15.415Z,7.38
2023-03-29T00:43:59.235Z,7.00
2023-03-29T00:46:30.909Z,9.07
2023-03-29T00:49:05.611Z,8.20
2023-03-29T00:51:39.859Z,7.55
2023-03-29T00:54:16.936Z,7.18
2023-03-29T00:56:50.786Z,8.07
2023-03-29T00:59:27.337Z,7.43
2023-03-29T01:02:02.924Z,6.65
2023-03-29T01:04:39.200Z,8.93
2023-03-29T01:07:14.809Z,9.35
2023-03-29T01:09:50.381Z,9.20
2023-03-29T01:12:27.035Z,8.73
2023-03-29T01:15:05.280Z,8.68
2023-03-29T01:17:35.852Z,10.23
2023-03-29T01:20:15.147Z,12.25
2023-03-29T01:23:01.519Z,8.55
2023-03-29T01:25:39.701Z,8.52
2023-03-29T01:28:14.368Z,9.88
2023-03-29T01:30:51.283Z,8.02
2023-03-29T01:33:25.492Z,8.77
2023-03-29T01:36:05.555Z,8.07
2023-03-29T01:38:43.685Z,7.60
2023-03-29T01:41:15.024Z,7.93
2023-03-29T01:43:50.252Z,7.93
2023-03-29T01:46:28.606Z,7.50
2023-03-29T01:49:02.958Z,7.78
2023-03-29T01:51:38.936Z,7.50
2023-03-29T01:54:14.310Z,7.65
2023-03-29T01:56:47.855Z,7.15
2023-03-29T01:59:24.704Z,7.72
2023-03-29T02:01:59.568Z,7.57
2023-03-29T02:04:35.438Z,8.63
2023-03-29T02:07:08.128Z,8.15
2023-03-29T02:09:40.573Z,8.55
2023-03-29T02:12:12.821Z,8.68
2023-03-29T02:14:45.130Z,8.00
2023-03-29T02:17:26.022Z,7.95
2023-03-29T02:20:01.643Z,7.93
2023-03-29T02:22:39.172Z,7.88
2023-03-29T02:25:12.425Z,7.68
2023-03-29T02:27:43.172Z,7.68
2023-03-29T02:30:18.808Z,7.30
2023-03-29T02:32:54.981Z,7.32
2023-03-29T02:35:35.311Z,8.50
2023-03-29T02:38:09.725Z,7.75
2023-03-29T02:40:42.865Z,7.97
2023-03-29T02:43:16.259Z,9.13
2023-03-29T02:45:50.070Z,7.85
2023-03-29T02:48:23.915Z,7.45
2023-03-29T02:50:57.094Z,7.20
2023-03-29T02:53:32.920Z,8.00
2023-03-29T02:56:04.606Z,7.15
2023-03-29T02:58:35.220Z,7.30
2023-03-29T03:01:08.915Z,7.30
2023-03-29T03:03:39.675Z,7.20
2023-03-29T03:06:10.587Z,8.23
2023-03-29T03:08:41.198Z,8.45
2023-03-29T03:11:11.685Z,8.15
2023-03-29T03:13:42.140Z,7.75
2023-03-29T03:16:14.517Z,6.95
2023-03-29T03:18:46.711Z,7.97
2023-03-29T03:21:17.851Z,8.35
2023-03-29T03:23:48.406Z,7.20
2023-03-29T03:26:19.808Z,7.90
2023-03-29T03:28:50.639Z,6.93
2023-03-29T03:31:22.705Z,7.28
2023-03-29T03:33:53.765Z,7.55
2023-03-29T03:36:30.026Z,7.30
2023-03-29T03:39:00.597Z,7.28
2023-03-29T03:41:31.076Z,7.90
2023-03-29T03:44:01.614Z,6.90
2023-03-29T03:46:36.770Z,8.35
2023-03-29T03:49:07.506Z,6.18
2023-03-29T03:51:38.241Z,6.28
2023-03-29T03:54:08.996Z,7.38
2023-03-29T03:56:39.619Z,6.70
2023-03-29T03:59:10.255Z,8.20
2023-03-29T04:01:44.374Z,7.43
2023-03-29T04:04:15.458Z,6.50
2023-03-29T04:06:46.749Z,6.53
2023-03-29T04:09:17.421Z,6.45
2023-03-29T04:11:48.025Z,7.35
2023-03-29T04:14:18.723Z,6.80
2023-03-29T04:16:50.901Z,6.32
2023-03-29T04:19:21.842Z,8.48
2023-03-29T04:21:54.471Z,6.32
2023-03-29T04:24:26.786Z,6.85
2023-03-29T04:26:57.270Z,6.10
2023-03-29T04:29:28.058Z,6.18
2023-03-29T04:32:00.114Z,7.38
2023-03-29T04:34:30.684Z,6.88
2023-03-29T04:37:01.326Z,6.50
2023-03-29T04:39:35.161Z,6.50
2023-03-29T04:42:05.989Z,7.05
2023-03-29T04:44:36.637Z,6.55
2023-03-29T04:47:08.853Z,7.18
2023-03-29T04:49:39.386Z,5.63
2023-03-29T04:52:10.106Z,9.68
2023-03-29T04:54:40.840Z,6.32
2023-03-29T04:57:11.892Z,6.85
2023-03-29T04:59:42.659Z,6.20
2023-03-29T05:02:14.958Z,6.65
2023-03-29T05:04:45.716Z,7.70
2023-03-29T05:07:16.475Z,6.90
2023-03-29T05:09:47.308Z,5.95
2023-03-29T05:12:26.984Z,6.75
2023-03-29T05:17:43.972Z,7.20
2023-03-29T05:20:16.135Z,7.32
2023-03-29T05:22:48.395Z,6.00
2023-03-29T05:25:20.770Z,6.18
2023-03-29T05:27:52.404Z,6.65
2023-03-29T05:30:24.129Z,6.97
2023-03-29T05:32:57.471Z,7.38
2023-03-29T05:35:30.262Z,7.63
2023-03-29T05:38:02.079Z,6.72
2023-03-29T05:40:33.954Z,6.03
2023-03-29T05:43:06.810Z,6.95
2023-03-29T05:45:38.182Z,6.55
2023-03-29T05:48:11.302Z,6.88
2023-03-29T05:50:44.379Z,6.43
2023-03-29T05:53:18.535Z,7.00
2023-03-29T05:55:49.587Z,7.07
2023-03-29T05:58:21.703Z,7.45
2023-03-29T06:00:53.358Z,6.93
2023-03-29T06:03:28.719Z,7.05
2023-03-29T06:06:01.710Z,6.00
2023-03-29T06:08:35.116Z,6.90
2023-03-29T06:11:09.963Z,7.13
2023-03-29T06:13:43.337Z,7.03
2023-03-29T06:16:15.400Z,6.80
2023-03-29T06:18:49.039Z,6.95
2023-03-29T06:21:25.946Z,7.53
2023-03-29T06:23:57.636Z,7.15
2023-03-29T06:26:29.812Z,7.55
2023-03-29T06:29:01.471Z,6.68
2023-03-29T06:31:33.011Z,7.43
2023-03-29T06:34:07.279Z,7.25
2023-03-29T06:36:38.986Z,6.63
2023-03-29T06:39:11.019Z,7.28
2023-03-29T06:41:43.393Z,7.03
2023-03-29T06:44:15.137Z,7.05
2023-03-29T06:46:46.518Z,7.22
2023-03-29T06:49:19.728Z,8.32
2023-03-29T06:51:51.638Z,7.32
2023-03-29T06:54:23.415Z,7.85
2023-03-29T06:56:54.922Z,8.20
2023-03-29T06:59:26.870Z,8.70
2023-03-29T07:02:00.235Z,8.88
2023-03-29T07:04:33.525Z,8.82
2023-03-29T07:07:04.335Z,7.90
2023-03-29T07:09:36.765Z,9.13
2023-03-29T07:12:07.571Z,9.02
2023-03-29T07:14:38.136Z,8.90
2023-03-29T07:17:08.712Z,9.45
2023-03-29T07:19:41.122Z,8.10
2023-03-29T07:22:11.796Z,9.18
2023-03-29T07:24:42.295Z,8.80
2023-03-29T07:27:13.872Z,7.80
2023-03-29T07:29:44.594Z,9.02
2023-03-29T07:32:15.181Z,7.03
2023-03-29T07:34:48.871Z,7.63
2023-03-29T07:37:19.506Z,7.38
2023-03-29T07:39:50.885Z,7.20
2023-03-29T07:42:22.029Z,7.72
2023-03-29T07:44:52.632Z,7.13
2023-03-29T07:47:23.246Z,8.40
2023-03-29T07:49:55.418Z,7.85
2023-03-29T07:52:26.074Z,6.97
2023-03-29T07:54:58.277Z,8.02
2023-03-29T07:57:29.661Z,6.90
2023-03-29T08:00:00.237Z,6.88
2023-03-29T08:02:30.893Z,7.22
2023-03-29T08:05:03.041Z,8.23
2023-03-29T08:07:36.564Z,7.93
2023-03-29T08:10:10.336Z,7.93
2023-03-29T08:12:41.286Z,8.73
2023-03-29T08:15:15.852Z,9.30
2023-03-29T08:17:46.554Z,8.77
2023-03-29T08:20:19.307Z,9.63
2023-03-29T08:22:49.764Z,10.25
2023-03-29T08:25:20.336Z,9.57
2023-03-29T08:27:50.798Z,10.43
2023-03-29T08:30:21.652Z,9.85
2023-03-29T08:32:55.302Z,9.80
2023-03-29T08:35:28.255Z,9.00
2023-03-29T08:37:58.683Z,8.25
2023-03-29T08:40:32.982Z,7.63
2023-03-29T08:43:22.920Z,7.15
2023-03-29T08:46:06.622Z,9.02
2023-03-29T08:48:42.916Z,8.60
2023-03-29T08:51:22.742Z,7.18
2023-03-29T08:56:30.754Z,7.55
2023-03-29T08:59:06.093Z,7.35
2023-03-29T09:01:41.341Z,7.70
2023-03-29T09:04:16.569Z,7.07
2023-03-29T09:09:55.735Z,7.75
2023-03-29T09:12:36.608Z,6.97
2023-03-29T09:15:20.488Z,7.93
2023-03-29T09:17:59.230Z,7.03
2023-03-29T09:20:41.732Z,6.80
2023-03-29T09:23:49.319Z,8.73
2023-03-29T09:26:26.764Z,7.78
2023-03-29T09:29:11.803Z,8.45
2023-03-29T09:31:46.056Z,7.50
2023-03-29T09:34:21.634Z,7.78
2023-03-29T09:36:57.723Z,7.80
2023-03-29T09:39:31.988Z,7.43
2023-03-29T09:42:08.807Z,7.63
2023-03-29T09:44:46.385Z,7.70
2023-03-29T09:47:29.292Z,8.90
2023-03-29T09:50:16.854Z,7.90
2023-03-29T09:52:58.582Z,7.25
2023-03-29T09:55:34.723Z,7.60
2023-03-29T09:58:17.203Z,8.13
2023-03-29T10:00:48.077Z,8.40
2023-03-29T10:03:23.136Z,7.60
2023-03-29T10:05:56.540Z,8.30
2023-03-29T10:08:30.518Z,8.05
2023-03-29T10:11:06.049Z,9.13
2023-03-29T10:13:38.710Z,7.80
2023-03-29T10:16:11.178Z,7.95
2023-03-29T10:18:44.398Z,8.30
2023-03-29T10:21:17.583Z,9.07
2023-03-29T10:23:48.081Z,8.25
2023-03-29T10:26:28.834Z,7.95
2023-03-29T10:29:02.413Z,8.48
2023-03-29T10:31:35.124Z,8.60
2023-03-29T10:34:11.327Z,8.00
2023-03-29T10:37:00.150Z,8.63
2023-03-29T10:39:35.356Z,8.85
2023-03-29T10:42:11.028Z,8.02
2023-03-29T10:44:44.339Z,7.90
2023-03-29T10:47:20.456Z,8.02
2023-03-29T10:50:01.610Z,8.55
2023-03-29T10:52:36.141Z,8.13
2023-03-29T10:55:16.721Z,7.72
2023-03-29T10:57:58.636Z,8.20
2023-03-29T11:00:38.571Z,8.10
2023-03-29T11:06:17.360Z,9.27
2023-03-29T11:12:32.854Z,8.65
2023-03-29T11:15:41.385Z,8.05
2023-03-29T11:19:01.668Z,9.30
2023-03-29T11:21:44.671Z,8.43
2023-03-29T11:24:56.267Z,8.15
2023-03-29T11:27:40.992Z,7.95
2023-03-29T11:30:23.313Z,7.72
2023-03-29T11:33:06.870Z,8.38
2023-03-29T11:35:54.407Z,8.80
2023-03-29T11:38:44.707Z,8.48
2023-03-29T11:41:21.068Z,7.50
2023-03-29T11:43:57.117Z,8.57
2023-03-29T11:46:38.814Z,9.05
2023-03-29T11:49:17.746Z,9.07
2023-03-29T11:51:51.874Z,8.77
2023-03-29T11:54:28.276Z,8.43
2023-03-29T11:57:08.789Z,9.70
2023-03-29T11:59:43.575Z,8.60
2023-03-29T12:02:25.411Z,8.18
2023-03-29T12:05:08.350Z,8.23
2023-03-29T12:07:42.640Z,8.98
2023-03-29T12:10:22.826Z,8.55
2023-03-29T12:13:28.380Z,8.55
2023-03-29T12:16:05.395Z,8.13
2023-03-29T12:18:42.812Z,8.82
2023-03-29T12:21:17.031Z,8.70
2023-03-29T12:24:24.293Z,8.98
2023-03-29T12:27:35.149Z,9.18
2023-03-29T12:30:31.164Z,9.05
2023-03-29T12:33:20.901Z,8.32
2023-03-29T12:36:08.292Z,8.57
2023-03-29T12:38:40.161Z,8.52
2023-03-29T12:41:19.824Z,10.25
2023-03-29T12:43:53.699Z,9.07
2023-03-29T12:46:37.441Z,9.20
2023-03-29T12:49:40.770Z,9.00
2023-03-29T12:52:31.197Z,7.95
2023-03-29T12:55:07.066Z,8.20
2023-03-29T12:57:45.224Z,8.57
2023-03-29T13:00:33.326Z,9.40
2023-03-29T13:03:07.778Z,7.57
2023-03-29T13:05:39.347Z,8.10
2023-03-29T13:08:31.898Z,8.60
2023-03-29T13:11:02.660Z,8.38
2023-03-29T13:13:37.560Z,8.38
2023-03-29T13:16:19.831Z,8.57
2023-03-29T13:19:22.560Z,7.97
2023-03-29T13:22:07.139Z,7.70
2023-03-29T13:25:05.366Z,8.65
2023-03-29T13:27:45.482Z,8.07
2023-03-29T13:30:29.217Z,9.50
2023-03-29T13:33:14.547Z,8.55
2023-03-29T13:35:58.164Z,8.55
2023-03-29T13:38:33.060Z,8.88
2023-03-29T13:41:08.165Z,8.98
2023-03-29T13:43:52.173Z,8.95
2023-03-29T13:46:27.085Z,7.55
2023-03-29T13:49:15.584Z,10.70
2023-03-29T13:52:06.829Z,9.52
2023-03-29T13:54:42.592Z,10.40
2023-03-29T13:57:20.014Z,9.50
2023-03-29T13:59:58.406Z,9.40
2023-03-29T14:02:48.797Z,9.25
2023-03-29T14:05:25.865Z,9.13
2023-03-29T14:08:06.639Z,9.32
2023-03-29T14:10:44.220Z,10.20
2023-03-29T14:13:25.132Z,8.82
2023-03-29T14:16:01.138Z,9.93
2023-03-29T14:18:42.984Z,9.93
2023-03-29T14:21:18.227Z,10.35
2023-03-29T14:24:00.569Z,10.77
2023-03-29T14:26:36.887Z,10.60
2023-03-29T14:29:14.690Z,9.85
2023-03-29T14:31:48.590Z,10.45
2023-03-29T14:34:23.773Z,10.48
2023-03-29T14:36:59.702Z,10.98
2023-03-29T14:39:38.171Z,10.65
2023-03-29T14:42:24.136Z,10.63
2023-03-29T14:45:30.407Z,11.40
2023-03-29T14:48:03.798Z,10.15
2023-03-29T14:50:37.506Z,10.70
2023-03-29T14:53:29.055Z,9.98
2023-03-29T14:56:34.186Z,10.18
2023-03-29T14:59:23.535Z,12.30
2023-03-29T15:02:32.432Z,10.57
2023-03-29T15:05:36.509Z,9.48
2023-03-29T15:08:33.609Z,10.77
2023-03-29T15:12:01.609Z,10.82
2023-03-29T15:14:42.816Z,10.82
2023-03-29T15:17:57.372Z,10.18
2023-03-29T15:20:46.563Z,10.75
2023-03-29T15:27:00.313Z,11.63
2023-03-29T15:29:47.207Z,10.52
2023-03-29T15:32:26.051Z,11.50
2023-03-29T15:35:19.835Z,11.15
2023-03-29T15:38:08.297Z,11.82
2023-03-29T15:40:43.409Z,10.18
2023-03-29T15:43:17.413Z,11.02
2023-03-29T15:45:58.173Z,9.90
2023-03-29T15:48:37.134Z,10.13
2023-03-29T15:51:22.132Z,9.93
2023-03-29T15:54:00.137Z,9.60
2023-03-29T15:56:42.559Z,9.45
2023-03-29T15:59:22.520Z,10.35
2023-03-29T16:02:00.922Z,11.02
2023-03-29T16:04:33.660Z,10.63
2023-03-29T16:07:08.100Z,10.27
2023-03-29T16:09:43.318Z,9.75
2023-03-29T16:12:18.490Z,12.30
2023-03-29T16:14:52.368Z,10.98
2023-03-29T16:17:41.143Z,11.60
2023-03-29T16:20:26.292Z,10.80
2023-03-29T16:23:00.721Z,11.60
2023-03-29T16:25:38.224Z,10.65
2023-03-29T16:28:12.550Z,10.43
2023-03-29T16:30:52.968Z,10.57
2023-03-29T16:33:24.577Z,10.10
2023-03-29T16:35:59.336Z,9.70
2023-03-29T16:38:32.871Z,10.50
2023-03-29T16:41:24.643Z,10.02
2023-03-29T16:44:01.789Z,9.70
2023-03-29T16:46:41.962Z,9.23
2023-03-29T16:49:19.250Z,9.80
2023-03-29T16:51:58.648Z,9.10
2023-03-29T16:54:34.564Z,9.45
2023-03-29T16:57:12.836Z,9.75
2023-03-29T17:00:10.492Z,9.07
2023-03-29T17:02:43.079Z,9.20
2023-03-29T17:05:15.233Z,10.60
2023-03-29T17:08:26.934Z,8.90
2023-03-29T17:11:10.922Z,10.48
2023-03-29T17:13:46.170Z,8.75
2023-03-29T17:16:25.730Z,10.73
2023-03-29T17:19:00.735Z,10.32
2023-03-29T17:21:41.228Z,9.88
2023-03-29T17:24:16.011Z,10.27
2023-03-29T17:26:51.725Z,10.23
2023-03-29T17:29:31.993Z,9.80
2023-03-29T17:32:03.915Z,9.93
2023-03-29T17:34:37.882Z,9.32
2023-03-29T17:37:27.120Z,9.70
2023-03-29T17:39:57.601Z,9.45
2023-03-29T17:42:29.522Z,9.75
2023-03-29T17:45:09.068Z,10.90
2023-03-29T17:47:43.284Z,10.55
2023-03-29T17:50:18.051Z,10.80
2023-03-29T17:53:06.686Z,11.45
2023-03-29T17:55:59.060Z,11.25
2023-03-29T18:03:05.891Z,12.57
2023-03-29T18:09:33.158Z,12.15
2023-03-29T18:12:05.471Z,11.82
2023-03-29T18:14:38.793Z,13.13
2023-03-29T18:17:18.767Z,12.60
2023-03-29T18:22:54.240Z,12.38
2023-03-29T18:25:31.400Z,11.23
2023-03-29T18:28:16.483Z,11.15
2023-03-29T18:30:59.779Z,12.68
2023-03-29T18:33:50.462Z,12.57
2023-03-29T18:36:22.502Z,12.20
2023-03-29T18:39:13.842Z,11.73
2023-03-29T18:41:54.894Z,11.57
2023-03-29T18:44:41.472Z,11.63
2023-03-29T18:47:17.986Z,12.10
2023-03-29T18:49:52.747Z,11.27
2023-03-29T18:52:36.170Z,11.57
2023-03-29T18:55:09.283Z,12.23
2023-03-29T18:57:45.575Z,12.32
2023-03-29T19:00:24.453Z,11.35
2023-03-29T19:02:54.973Z,11.30
2023-03-29T19:05:27.086Z,11.43
2023-03-29T19:08:00.585Z,12.18
2023-03-29T19:10:31.228Z,11.60
2023-03-29T19:13:06.883Z,12.70
2023-03-29T19:15:37.320Z,11.63
2023-03-29T19:18:08.615Z,13.07
2023-03-29T19:20:42.439Z,11.95
2023-03-29T19:23:24.152Z,11.77
2023-03-29T19:25:55.781Z,11.85
2023-03-29T19:28:26.856Z,11.55
2023-03-29T19:31:02.838Z,11.05
2023-03-29T19:33:33.793Z,11.07
2023-03-29T19:36:06.107Z,12.77
2023-03-29T19:38:39.821Z,11.93
2023-03-29T19:41:10.652Z,10.48
2023-03-29T19:43:41.451Z,10.80
2023-03-29T19:46:13.528Z,9.55
2023-03-29T19:48:44.135Z,10.25
2023-03-29T19:51:16.312Z,10.90
2023-03-29T19:53:50.533Z,11.43
2023-03-29T19:56:21.026Z,10.48
2023-03-29T19:58:51.910Z,10.55
2023-03-29T20:01:23.034Z,11.43
2023-03-29T20:03:53.844Z,10.95
2023-03-29T20:06:29.586Z,10.45
2023-03-29T20:08:59.999Z,10.10
2023-03-29T20:11:32.109Z,9.82
2023-03-29T20:14:05.922Z,9.52
2023-03-29T20:16:37.318Z,10.38
2023-03-29T20:19:08.506Z,10.05
2023-03-29T20:21:41.553Z,8.57
2023-03-29T20:24:12.772Z,8.38
2023-03-29T20:26:43.401Z,10.35
2023-03-29T20:29:16.249Z,8.95
2023-03-29T20:31:47.253Z,9.23
2023-03-29T20:34:21.234Z,8.73
2023-03-29T20:37:01.552Z,9.55
2023-03-29T20:39:32.748Z,10.27
2023-03-29T20:42:03.861Z,8.93
2023-03-29T20:44:39.955Z,8.63
2023-03-29T20:47:14.929Z,8.90
2023-03-29T20:49:50.252Z,8.80
2023-03-29T20:52:23.190Z,8.68
2023-03-29T20:54:53.797Z,7.90
2023-03-29T20:57:24.393Z,9.30
2023-03-29T20:59:54.882Z,8.43
2023-03-29T21:02:45.312Z,8.77
2023-03-29T21:05:37.017Z,8.70
2023-03-29T21:08:33.238Z,8.13
2023-03-29T21:11:21.350Z,8.38
2023-03-29T21:14:08.462Z,8.30
2023-03-29T21:16:51.480Z,9.02
2023-03-29T21:19:26.567Z,8.75
2023-03-29T21:22:24.470Z,9.73
2023-03-29T21:25:17.653Z,9.25
2023-03-29T21:28:24.173Z,9.05
2023-03-29T21:31:09.713Z,9.80
2023-03-29T21:34:07.363Z,9.65
2023-03-29T21:37:01.220Z,9.35
2023-03-29T21:40:17.372Z,8.40
2023-03-29T21:43:48.726Z,8.55
2023-03-29T21:47:17.061Z,9.13
2023-03-29T21:50:36.608Z,10.90
2023-03-29T21:53:58.980Z,10.05
2023-03-29T21:57:12.024Z,9.90
2023-03-29T22:00:13.118Z,9.82
2023-03-29T22:03:25.257Z,10.85
2023-03-29T22:06:39.716Z,9.75
2023-03-29T22:13:14.386Z,9.88
2023-03-29T22:16:27.511Z,9.63
2023-03-29T22:19:17.605Z,9.25
2023-03-29T22:22:07.016Z,9.98
2023-03-29T22:24:49.697Z,10.50
2023-03-29T22:27:46.593Z,10.30
2023-03-29T22:30:52.049Z,9.55
2023-03-29T22:33:35.412Z,9.52
2023-03-29T22:36:38.231Z,9.73
2023-03-29T22:39:26.937Z,9.40
2023-03-29T22:49:11.283Z,8.93
2023-03-29T22:52:33.578Z,9.02
2023-03-29T23:02:19.334Z,8.60
2023-03-29T23:05:07.961Z,9.48
2023-03-29T23:07:41.325Z,8.73
2023-03-29T23:10:14.037Z,8.23
2023-03-29T23:12:45.781Z,8.68
2023-03-29T23:15:18.360Z,8.90
2023-03-29T23:17:50.198Z,9.20
2023-03-29T23:20:22.176Z,9.10
2023-03-29T23:22:59.118Z,9.65
2023-03-29T23:25:31.125Z,10.57
2023-03-29T23:28:02.880Z,8.80
2023-03-29T23:30:34.439Z,10.02
2023-03-29T23:33:06.089Z,9.68
2023-03-29T23:35:38.112Z,10.43
2023-03-29T23:38:11.216Z,9.43
2023-03-29T23:40:42.704Z,9.68
2023-03-29T23:46:11.661Z,9.65
2023-03-29T23:48:43.438Z,9.90
2023-03-29T23:51:14.751Z,9.63
2023-03-29T23:53:47.898Z,9.68
2023-03-29T23:56:22.588Z,9.18
2023-03-29T23:58:54.109Z,10.55
